Time;durP1;ratioP1;P1;durP2;ratioP2;P2;SDS_P1;SDS_P2;PMS_P1;PMS_P2;Temp;Humidity;BMP_temperature;BMP_pressure;BME280_temperature;BME280_humidity;BME280_pressure;Samples;Min_cycle;Max_cycle;Signal;HPM_P1;HPM_P2
2022/09/18 00:01:19;;;;;;;6.22;2.67;;;;;;;;;;5030481;28;20383;-70
2022/09/18 00:03:46;;;;;;;4.60;2.55;;;;;;;;;;5030382;28;20358;-67
2022/09/18 00:06:16;;;;;;;4.95;2.38;;;;;;;;;;5030217;28;20416;-67
2022/09/18 00:08:42;;;;;;;5.15;2.22;;;;;;;;;;5012088;28;20355;-67
2022/09/18 00:11:10;;;;;;;6.55;2.60;;;;;;;;;;5029914;28;20492;-68
2022/09/18 00:13:36;;;;;;;5.40;1.95;;;;;;;;;;5011762;28;20434;-67
2022/09/18 00:16:02;;;;;;;5.95;2.45;;;;;;;;;;5030043;28;20024;-68
2022/09/18 00:18:27;;;;;;;4.95;2.35;;;;;;;;;;5029757;28;20081;-68
2022/09/18 00:20:52;;;;;;;5.38;2.53;;;;;;;;;;5012067;28;20370;-67
2022/09/18 00:23:18;;;;;;;6.82;2.60;;;;;;;;;;5029759;28;20028;-66
2022/09/18 00:25:43;;;;;;;4.53;2.00;;;;;;;;;;5029425;28;20387;-67
2022/09/18 00:28:09;;;;;;;6.45;1.92;;;;;;;;;;5030238;28;20387;-68
2022/09/18 00:30:34;;;;;;;5.50;2.08;;;;;;;;;;5029643;28;20395;-68
2022/09/18 00:32:59;;;;;;;4.30;1.92;;;;;;;;;;5029606;28;20392;-67
2022/09/18 00:35:25;;;;;;;3.03;1.73;;;;;;;;;;5012553;28;20339;-67
2022/09/18 00:37:50;;;;;;;3.97;2.00;;;;;;;;;;5029959;28;20343;-68
2022/09/18 00:40:16;;;;;;;4.40;1.70;;;;;;;;;;5029980;28;20386;-67
2022/09/18 00:42:42;;;;;;;6.22;1.90;;;;;;;;;;5031571;28;20028;-67
2022/09/18 00:45:09;;;;;;;5.28;2.05;;;;;;;;;;5029339;28;20585;-67
2022/09/18 00:47:38;;;;;;;4.28;2.20;;;;;;;;;;5011418;28;20385;-68
2022/09/18 00:50:19;;;;;;;5.38;2.10;;;;;;;;;;5029247;28;20358;-68
2022/09/18 00:52:44;;;;;;;4.18;1.98;;;;;;;;;;5007432;28;20412;-67
2022/09/18 00:55:10;;;;;;;5.30;1.67;;;;;;;;;;5009186;28;20021;-67
2022/09/18 00:57:43;;;;;;;6.13;1.92;;;;;;;;;;5007645;28;20032;-67
2022/09/18 01:00:13;;;;;;;4.53;1.80;;;;;;;;;;5007750;28;20047;-67
2022/09/18 01:02:40;;;;;;;4.18;1.65;;;;;;;;;;5005794;28;20324;-68
2022/09/18 01:05:06;;;;;;;5.07;1.98;;;;;;;;;;4989496;28;20427;-68
2022/09/18 01:07:43;;;;;;;3.28;2.03;;;;;;;;;;4987684;28;20479;-68
2022/09/18 01:10:33;;;;;;;5.80;1.67;;;;;;;;;;4989197;28;20375;-68
2022/09/18 01:13:05;;;;;;;3.58;1.70;;;;;;;;;;4990696;28;20331;-68
2022/09/18 01:15:42;;;;;;;4.63;1.77;;;;;;;;;;4987719;28;20048;-68
2022/09/18 01:18:10;;;;;;;7.10;1.52;;;;;;;;;;4989570;28;20439;-68
2022/09/18 01:20:56;;;;;;;4.23;1.73;;;;;;;;;;4990129;28;20497;-70
2022/09/18 01:23:55;;;;;;;3.05;1.40;;;;;;;;;;4987891;28;20788;-68
2022/09/18 01:26:31;;;;;;;4.53;1.80;;;;;;;;;;4988959;28;20067;-69
2022/09/18 01:29:00;;;;;;;4.75;1.30;;;;;;;;;;4988636;28;20501;-69
2022/09/18 01:31:31;;;;;;;2.58;1.10;;;;;;;;;;4987303;28;20424;-69
2022/09/18 01:34:00;;;;;;;2.00;1.20;;;;;;;;;;4987545;28;20406;-69
2022/09/18 01:36:29;;;;;;;4.20;1.70;;;;;;;;;;4987011;28;20451;-69
2022/09/18 01:39:02;;;;;;;4.30;2.00;;;;;;;;;;4987494;28;20363;-69
2022/09/18 01:41:28;;;;;;;2.75;1.35;;;;;;;;;;4987079;28;20033;-69
2022/09/18 01:43:59;;;;;;;4.55;1.42;;;;;;;;;;4989136;28;20021;-70
2022/09/18 01:46:24;;;;;;;4.32;1.40;;;;;;;;;;4988038;28;20443;-71
2022/09/18 01:48:56;;;;;;;2.45;1.40;;;;;;;;;;4988294;28;20452;-69
2022/09/18 01:51:35;;;;;;;3.10;1.25;;;;;;;;;;4986868;28;20534;-69
2022/09/18 01:54:07;;;;;;;1.77;1.20;;;;;;;;;;4987533;28;20025;-70
2022/09/18 01:56:36;;;;;;;2.50;1.55;;;;;;;;;;4987106;28;20503;-69
2022/09/18 01:59:05;;;;;;;1.65;1.42;;;;;;;;;;4988615;28;20439;-69
2022/09/18 02:01:32;;;;;;;4.15;1.92;;;;;;;;;;4988190;28;20033;-69
2022/09/18 02:04:02;;;;;;;5.28;1.38;;;;;;;;;;4986997;28;20037;-69
2022/09/18 02:06:41;;;;;;;5.53;1.27;;;;;;;;;;4986594;28;20397;-69
2022/09/18 02:09:10;;;;;;;2.75;1.38;;;;;;;;;;4988164;28;20478;-69
2022/09/18 02:11:37;;;;;;;2.92;1.58;;;;;;;;;;4987281;28;20382;-68
2022/09/18 02:14:37;;;;;;;3.25;1.40;;;;;;;;;;4987020;28;20052;-69
2022/09/18 02:17:05;;;;;;;3.20;1.60;;;;;;;;;;4976530;28;20375;-69
2022/09/18 02:19:53;;;;;;;3.85;1.25;;;;;;;;;;4986561;28;20451;-70
2022/09/18 02:22:20;;;;;;;4.13;1.30;;;;;;;;;;4976468;28;20531;-69
2022/09/18 02:24:48;;;;;;;3.05;1.58;;;;;;;;;;4986737;28;20047;-70
2022/09/18 02:27:14;;;;;;;3.55;1.38;;;;;;;;;;4987018;28;20416;-69
2022/09/18 02:29:41;;;;;;;1.85;1.08;;;;;;;;;;4986292;28;20458;-70
2022/09/18 02:32:07;;;;;;;4.05;1.55;;;;;;;;;;4987266;28;20550;-69
2022/09/18 02:34:32;;;;;;;3.45;1.40;;;;;;;;;;4987937;28;20351;-69
2022/09/18 02:37:01;;;;;;;3.60;1.10;;;;;;;;;;4986472;28;20107;-70
2022/09/18 02:39:29;;;;;;;2.40;1.10;;;;;;;;;;4989000;28;20025;-69
2022/09/18 02:41:57;;;;;;;4.20;1.65;;;;;;;;;;4987567;28;20352;-69
2022/09/18 02:44:43;;;;;;;3.60;1.30;;;;;;;;;;4987817;28;20527;-70
2022/09/18 02:47:56;;;;;;;3.80;1.50;;;;;;;;;;4987456;28;20351;-69
2022/09/18 02:50:33;;;;;;;2.15;1.08;;;;;;;;;;4954536;28;20497;-69
2022/09/18 02:53:08;;;;;;;3.28;1.02;;;;;;;;;;4983347;28;20095;-69
2022/09/18 02:55:41;;;;;;;2.72;1.50;;;;;;;;;;5007166;28;20457;-68
2022/09/18 02:58:16;;;;;;;3.38;1.20;;;;;;;;;;4989629;28;20351;-70
2022/09/18 03:00:43;;;;;;;2.13;1.30;;;;;;;;;;4989225;28;20395;-69
2022/09/18 03:03:16;;;;;;;4.07;1.27;;;;;;;;;;4989332;28;20431;-69
2022/09/18 03:05:42;;;;;;;4.28;1.30;;;;;;;;;;5007512;28;20355;-69
2022/09/18 03:08:07;;;;;;;4.50;1.35;;;;;;;;;;4990389;28;20327;-69
2022/09/18 03:10:33;;;;;;;4.50;1.00;;;;;;;;;;5007373;28;20367;-69
2022/09/18 03:12:58;;;;;;;3.65;0.90;;;;;;;;;;5007052;28;20428;-69
2022/09/18 03:15:23;;;;;;;1.73;1.05;;;;;;;;;;5008181;28;20033;-69
2022/09/18 03:17:49;;;;;;;3.42;1.17;;;;;;;;;;5007843;28;20325;-70
2022/09/18 03:20:14;;;;;;;3.67;1.08;;;;;;;;;;5008674;28;20515;-69
2022/09/18 03:22:39;;;;;;;2.47;1.35;;;;;;;;;;5007358;28;20415;-69
2022/09/18 03:25:05;;;;;;;3.88;1.35;;;;;;;;;;4972682;28;20332;-69
2022/09/18 03:27:31;;;;;;;7.88;1.73;;;;;;;;;;5006700;28;20462;-69
2022/09/18 03:29:56;;;;;;;4.07;1.27;;;;;;;;;;5007039;28;20050;-69
2022/09/18 03:32:21;;;;;;;3.75;1.17;;;;;;;;;;5009036;28;20487;-69
2022/09/18 03:34:47;;;;;;;4.93;1.40;;;;;;;;;;5006957;28;20522;-69
2022/09/18 03:37:12;;;;;;;1.00;0.75;;;;;;;;;;5007009;28;20422;-70
2022/09/18 03:39:38;;;;;;;3.47;1.02;;;;;;;;;;5006869;28;20083;-70
2022/09/18 03:42:03;;;;;;;2.75;1.15;;;;;;;;;;5008859;28;20334;-69
2022/09/18 03:44:28;;;;;;;1.23;0.75;;;;;;;;;;5007019;28;20443;-69
2022/09/18 03:46:54;;;;;;;4.15;1.20;;;;;;;;;;5007451;28;20051;-70
2022/09/18 03:49:19;;;;;;;6.07;2.20;;;;;;;;;;5006983;28;20515;-69
2022/09/18 03:51:44;;;;;;;5.30;1.58;;;;;;;;;;5007709;28;20420;-69
2022/09/18 03:54:10;;;;;;;3.30;1.55;;;;;;;;;;5006936;28;20351;-70
2022/09/18 03:56:37;;;;;;;3.67;0.93;;;;;;;;;;5006915;28;20343;-72
2022/09/18 03:59:02;;;;;;;4.22;1.08;;;;;;;;;;4988869;28;20490;-69
2022/09/18 04:01:28;;;;;;;3.40;1.30;;;;;;;;;;5010106;28;20447;-70
2022/09/18 04:03:53;;;;;;;3.95;1.10;;;;;;;;;;4992340;28;20351;-69
2022/09/18 04:06:18;;;;;;;4.82;1.00;;;;;;;;;;5010207;28;20427;-70
2022/09/18 04:08:44;;;;;;;6.47;1.05;;;;;;;;;;5010756;28;20450;-70
2022/09/18 04:11:09;;;;;;;2.22;0.90;;;;;;;;;;4992414;28;20422;-70
2022/09/18 04:13:34;;;;;;;4.00;1.48;;;;;;;;;;5009916;28;20500;-70
2022/09/18 04:16:00;;;;;;;2.22;0.90;;;;;;;;;;5010166;28;20339;-70
2022/09/18 04:18:25;;;;;;;3.47;1.00;;;;;;;;;;5009958;28;20427;-70
2022/09/18 04:20:51;;;;;;;2.10;1.05;;;;;;;;;;5010127;28;20465;-69
2022/09/18 04:23:17;;;;;;;2.70;1.40;;;;;;;;;;5009990;28;20504;-70
2022/09/18 04:25:42;;;;;;;6.70;1.08;;;;;;;;;;4991941;28;20363;-70
2022/09/18 04:28:09;;;;;;;4.00;1.25;;;;;;;;;;4992071;28;20028;-69
2022/09/18 04:30:35;;;;;;;2.90;1.52;;;;;;;;;;4992678;28;20043;-70
2022/09/18 04:33:00;;;;;;;2.58;1.13;;;;;;;;;;4991544;28;20037;-70
2022/09/18 04:35:25;;;;;;;4.70;1.10;;;;;;;;;;5010125;28;20442;-70
2022/09/18 04:37:51;;;;;;;4.47;0.85;;;;;;;;;;4991849;28;20416;-70
2022/09/18 04:40:16;;;;;;;2.03;1.02;;;;;;;;;;4991589;28;20289;-70
2022/09/18 04:42:41;;;;;;;4.00;1.25;;;;;;;;;;5009938;28;20385;-70
2022/09/18 04:45:07;;;;;;;4.80;1.30;;;;;;;;;;5009479;28;20434;-70
2022/09/18 04:47:33;;;;;;;3.85;1.42;;;;;;;;;;4991358;28;21111;-70
2022/09/18 04:49:58;;;;;;;5.90;2.45;;;;;;;;;;4991350;28;20029;-70
2022/09/18 04:52:23;;;;;;;6.03;2.55;;;;;;;;;;5008832;28;20098;-70
2022/09/18 04:54:49;;;;;;;4.50;2.05;;;;;;;;;;5009374;28;20343;-69
2022/09/18 04:57:14;;;;;;;4.72;1.55;;;;;;;;;;5010166;28;20428;-70
2022/09/18 04:59:39;;;;;;;6.45;1.73;;;;;;;;;;4991335;28;20342;-70
2022/09/18 05:02:05;;;;;;;5.45;1.63;;;;;;;;;;4991291;28;20328;-71
2022/09/18 05:04:30;;;;;;;1.98;0.90;;;;;;;;;;5009190;28;20074;-70
2022/09/18 05:06:56;;;;;;;8.93;1.38;;;;;;;;;;5009249;28;20064;-70
2022/09/18 05:09:21;;;;;;;3.05;1.38;;;;;;;;;;5010677;28;20344;-70
2022/09/18 05:11:46;;;;;;;3.38;1.38;;;;;;;;;;4990938;28;20508;-70
2022/09/18 05:14:12;;;;;;;3.97;2.13;;;;;;;;;;4991350;28;20445;-70
2022/09/18 05:16:37;;;;;;;2.83;1.55;;;;;;;;;;5008959;28;20351;-69
2022/09/18 05:19:03;;;;;;;6.28;1.95;;;;;;;;;;5010833;28;20418;-70
2022/09/18 05:21:28;;;;;;;5.07;2.10;;;;;;;;;;5009453;28;20530;-70
2022/09/18 05:23:53;;;;;;;7.25;2.00;;;;;;;;;;4990868;28;20500;-69
2022/09/18 05:26:19;;;;;;;5.57;1.95;;;;;;;;;;4990822;28;20469;-70
2022/09/18 05:28:47;;;;;;;4.75;2.13;;;;;;;;;;4990791;28;20450;-69
2022/09/18 05:31:13;;;;;;;4.97;2.63;;;;;;;;;;5010178;28;20369;-69
2022/09/18 05:33:40;;;;;;;6.05;2.03;;;;;;;;;;5010035;28;20036;-69
2022/09/18 05:36:05;;;;;;;3.97;2.28;;;;;;;;;;5008459;28;20055;-69
2022/09/18 05:38:31;;;;;;;5.05;2.40;;;;;;;;;;5008505;28;20428;-70
2022/09/18 05:40:59;;;;;;;9.60;3.20;;;;;;;;;;5008654;28;20438;-70
2022/09/18 05:43:24;;;;;;;3.28;1.88;;;;;;;;;;5009115;28;20133;-70
2022/09/18 05:45:49;;;;;;;4.88;1.80;;;;;;;;;;5009533;28;20435;-70
2022/09/18 05:48:15;;;;;;;4.82;1.90;;;;;;;;;;5008585;28;20557;-70
2022/09/18 05:50:42;;;;;;;4.43;1.80;;;;;;;;;;5008201;28;20463;-69
2022/09/18 05:53:11;;;;;;;5.63;1.63;;;;;;;;;;5007699;28;20461;-70
2022/09/18 05:55:36;;;;;;;4.47;1.48;;;;;;;;;;5008777;28;20389;-70
2022/09/18 05:58:05;;;;;;;5.45;1.90;;;;;;;;;;4990281;28;20373;-69
2022/09/18 06:00:32;;;;;;;3.85;1.63;;;;;;;;;;4990192;28;20522;-70
2022/09/18 06:02:59;;;;;;;4.07;1.80;;;;;;;;;;5007997;28;20056;-70
2022/09/18 06:05:26;;;;;;;4.40;2.08;;;;;;;;;;5007982;28;20367;-70
2022/09/18 06:07:52;;;;;;;4.10;2.25;;;;;;;;;;5009028;28;20047;-69
2022/09/18 06:10:18;;;;;;;3.90;1.73;;;;;;;;;;4991099;28;20433;-70
2022/09/18 06:12:44;;;;;;;3.35;1.50;;;;;;;;;;4990261;28;20462;-70
2022/09/18 06:15:10;;;;;;;3.50;1.58;;;;;;;;;;5010196;28;20032;-70
2022/09/18 06:17:36;;;;;;;3.63;1.60;;;;;;;;;;5008187;28;20431;-70
2022/09/18 06:20:01;;;;;;;4.22;2.17;;;;;;;;;;5007964;28;20447;-69
2022/09/18 06:22:27;;;;;;;5.22;2.53;;;;;;;;;;4990211;28;20347;-70
2022/09/18 06:24:52;;;;;;;3.33;1.95;;;;;;;;;;4989849;28;20429;-70
2022/09/18 06:27:17;;;;;;;4.53;1.80;;;;;;;;;;4989847;28;20028;-70
2022/09/18 06:29:43;;;;;;;5.70;2.25;;;;;;;;;;4989500;28;20343;-69
2022/09/18 06:32:10;;;;;;;5.47;2.00;;;;;;;;;;5007658;28;20335;-70
2022/09/18 06:34:35;;;;;;;6.85;2.30;;;;;;;;;;4989376;28;20350;-70
2022/09/18 06:37:00;;;;;;;5.70;2.50;;;;;;;;;;5007633;28;20034;-70
2022/09/18 06:39:26;;;;;;;7.05;2.55;;;;;;;;;;5007655;28;20346;-70
2022/09/18 06:41:51;;;;;;;7.55;2.67;;;;;;;;;;5007465;28;20455;-69
2022/09/18 06:44:16;;;;;;;8.20;2.70;;;;;;;;;;5008021;28;20415;-70
2022/09/18 06:46:42;;;;;;;5.20;1.77;;;;;;;;;;5007574;28;20020;-70
2022/09/18 06:49:07;;;;;;;6.32;2.65;;;;;;;;;;5007406;28;20324;-70
2022/09/18 06:51:32;;;;;;;6.03;2.33;;;;;;;;;;5007626;28;20425;-69
2022/09/18 06:53:58;;;;;;;6.47;2.30;;;;;;;;;;5007177;28;20451;-70
2022/09/18 06:56:23;;;;;;;6.20;2.45;;;;;;;;;;4989385;28;20490;-70
2022/09/18 06:58:52;;;;;;;6.72;2.50;;;;;;;;;;4990112;28;20457;-69
2022/09/18 07:01:17;;;;;;;8.95;2.35;;;;;;;;;;4989446;28;20097;-71
2022/09/18 07:03:42;;;;;;;4.50;2.15;;;;;;;;;;5008834;28;20025;-69
2022/09/18 07:06:09;;;;;;;6.82;3.13;;;;;;;;;;4989832;28;20340;-70
2022/09/18 07:08:34;;;;;;;3.30;2.30;;;;;;;;;;5007372;28;20443;-69
2022/09/18 07:11:01;;;;;;;4.40;2.40;;;;;;;;;;4989840;28;20377;-70
2022/09/18 07:13:29;;;;;;;10.30;2.65;;;;;;;;;;4989683;28;20496;-70
2022/09/18 07:15:55;;;;;;;10.35;2.55;;;;;;;;;;5008694;28;20470;-70
2022/09/18 07:18:20;;;;;;;5.80;2.65;;;;;;;;;;5007422;28;20424;-70
2022/09/18 07:20:45;;;;;;;7.25;2.72;;;;;;;;;;5009411;28;20323;-70
2022/09/18 07:23:11;;;;;;;6.68;2.85;;;;;;;;;;5007846;28;20404;-69
2022/09/18 07:25:36;;;;;;;5.00;2.38;;;;;;;;;;5007749;28;20324;-69
2022/09/18 07:28:09;;;;;;;10.23;3.08;;;;;;;;;;5006947;28;20347;-69
2022/09/18 07:30:36;;;;;;;7.60;2.83;;;;;;;;;;4989627;28;20461;-70
2022/09/18 07:33:02;;;;;;;7.50;3.00;;;;;;;;;;5006921;28;20418;-69
2022/09/18 07:35:28;;;;;;;4.97;2.70;;;;;;;;;;4990950;28;20532;-70
2022/09/18 07:37:57;;;;;;;6.68;3.05;;;;;;;;;;5011383;28;20354;-70
2022/09/18 07:40:23;;;;;;;13.75;3.38;;;;;;;;;;5011266;28;20528;-70
2022/09/18 07:42:48;;;;;;;5.00;3.22;;;;;;;;;;5010684;28;20375;-69
2022/09/18 07:45:14;;;;;;;6.18;2.70;;;;;;;;;;5010706;28;20688;-69
2022/09/18 07:47:39;;;;;;;5.55;2.30;;;;;;;;;;5010614;28;20492;-69
2022/09/18 07:50:05;;;;;;;9.50;2.90;;;;;;;;;;5010731;28;20419;-68
2022/09/18 07:52:30;;;;;;;8.57;3.28;;;;;;;;;;5009939;28;20517;-70
2022/09/18 07:54:56;;;;;;;7.35;3.08;;;;;;;;;;5011802;28;20423;-70
2022/09/18 07:57:22;;;;;;;8.00;2.80;;;;;;;;;;5010756;28;20447;-69
2022/09/18 07:59:47;;;;;;;5.55;2.80;;;;;;;;;;4992773;28;20032;-70
2022/09/18 08:02:12;;;;;;;5.70;2.30;;;;;;;;;;4993106;28;20043;-69
2022/09/18 08:04:38;;;;;;;6.25;2.50;;;;;;;;;;4992498;28;20448;-70
2022/09/18 08:07:03;;;;;;;4.25;2.30;;;;;;;;;;4992330;28;20468;-69
2022/09/18 08:09:28;;;;;;;3.10;2.35;;;;;;;;;;5012211;28;20481;-70
2022/09/18 08:11:54;;;;;;;4.53;2.22;;;;;;;;;;5010779;28;20423;-69
2022/09/18 08:14:19;;;;;;;4.75;2.55;;;;;;;;;;4991930;28;20482;-69
2022/09/18 08:16:45;;;;;;;6.97;2.55;;;;;;;;;;5010160;28;20094;-69
2022/09/18 08:19:11;;;;;;;5.72;2.53;;;;;;;;;;4991936;28;20412;-69
2022/09/18 08:21:36;;;;;;;8.65;2.35;;;;;;;;;;4992256;28;20462;-70
2022/09/18 08:24:02;;;;;;;4.07;2.08;;;;;;;;;;5010097;28;20510;-70
2022/09/18 08:26:27;;;;;;;5.38;2.40;;;;;;;;;;5009626;28;20451;-69
2022/09/18 08:28:53;;;;;;;3.22;2.35;;;;;;;;;;5010033;28;20335;-70
2022/09/18 08:31:18;;;;;;;5.13;2.30;;;;;;;;;;5011071;28;20350;-70
2022/09/18 08:33:43;;;;;;;4.50;2.08;;;;;;;;;;5009542;28;20443;-70
2022/09/18 08:36:09;;;;;;;4.15;2.22;;;;;;;;;;5010645;28;20494;-69
2022/09/18 08:38:34;;;;;;;5.32;2.17;;;;;;;;;;5009597;28;20453;-69
2022/09/18 08:41:14;;;;;;;5.22;2.20;;;;;;;;;;5009746;28;20104;-70
2022/09/18 08:43:52;;;;;;;4.30;2.65;;;;;;;;;;5009676;28;20532;-69
2022/09/18 08:46:39;;;;;;;5.35;2.00;;;;;;;;;;5009335;28;20107;-69
2022/09/18 08:49:14;;;;;;;4.07;2.33;;;;;;;;;;4991572;28;20389;-70
2022/09/18 08:52:16;;;;;;;3.30;2.15;;;;;;;;;;5008745;28;20267;-69
2022/09/18 08:55:01;;;;;;;2.90;1.55;;;;;;;;;;4991113;28;20466;-69
2022/09/18 08:57:33;;;;;;;4.15;1.73;;;;;;;;;;5009461;28;20352;-68
2022/09/18 09:00:06;;;;;;;3.38;1.40;;;;;;;;;;5009374;28;20036;-70
2022/09/18 09:02:40;;;;;;;2.88;1.83;;;;;;;;;;4991828;28;20431;-69
2022/09/18 09:05:09;;;;;;;4.13;1.70;;;;;;;;;;4991115;28;20355;-69
2022/09/18 09:07:59;;;;;;;1.42;1.20;;;;;;;;;;4991056;28;20016;-69
2022/09/18 09:10:41;;;;;;;2.28;1.85;;;;;;;;;;5009224;28;20371;-69
2022/09/18 09:13:34;;;;;;;4.00;1.67;;;;;;;;;;4991239;28;20101;-69
2022/09/18 09:16:25;;;;;;;1.30;1.17;;;;;;;;;;5010745;28;20447;-70
2022/09/18 09:19:01;;;;;;;2.72;1.20;;;;;;;;;;4970533;28;20148;-69
2022/09/18 09:21:45;;;;;;;2.95;1.30;;;;;;;;;;5009629;28;20435;-69
2022/09/18 09:24:30;;;;;;;6.55;1.10;;;;;;;;;;5008786;28;20430;-68
2022/09/18 09:26:56;;;;;;;4.30;1.85;;;;;;;;;;5008680;28;20482;-69
2022/09/18 09:29:27;;;;;;;2.03;1.10;;;;;;;;;;4991287;28;20354;-69
2022/09/18 09:31:56;;;;;;;2.00;1.10;;;;;;;;;;4990935;28;20024;-69
2022/09/18 09:34:36;;;;;;;3.97;1.35;;;;;;;;;;4990697;28;20037;-68
2022/09/18 09:37:03;;;;;;;2.97;1.50;;;;;;;;;;4991066;28;20449;-69
2022/09/18 09:39:41;;;;;;;5.20;1.60;;;;;;;;;;4990692;28;20359;-69
2022/09/18 09:42:40;;;;;;;2.17;1.45;;;;;;;;;;5009966;28;20435;-68
2022/09/18 09:45:14;;;;;;;3.13;1.30;;;;;;;;;;4989738;28;20367;-69
2022/09/18 09:47:50;;;;;;;6.15;1.58;;;;;;;;;;5008276;28;20119;-69
2022/09/18 09:50:52;;;;;;;3.45;1.00;;;;;;;;;;4990298;28;20385;-68
2022/09/18 09:53:18;;;;;;;2.92;1.38;;;;;;;;;;4986625;28;20340;-69
2022/09/18 09:55:53;;;;;;;3.13;1.08;;;;;;;;;;4986966;28;20465;-69
2022/09/18 09:58:45;;;;;;;2.13;1.00;;;;;;;;;;4987615;28;20454;-69
2022/09/18 10:01:32;;;;;;;2.17;1.10;;;;;;;;;;4988329;28;20352;-69
2022/09/18 10:04:30;;;;;;;2.92;1.13;;;;;;;;;;4986388;28;20339;-69
2022/09/18 10:07:19;;;;;;;2.13;1.20;;;;;;;;;;4988796;28;20098;-69
2022/09/18 10:09:55;;;;;;;2.25;1.20;;;;;;;;;;4988024;28;20029;-69
2022/09/18 10:12:38;;;;;;;2.90;0.85;;;;;;;;;;4987966;28;20351;-69
2022/09/18 10:15:26;;;;;;;0.88;0.57;;;;;;;;;;4988120;28;20032;-69
2022/09/18 10:17:56;;;;;;;1.92;0.98;;;;;;;;;;4988786;28;20029;-69
2022/09/18 10:20:26;;;;;;;1.42;0.85;;;;;;;;;;4986646;28;20455;-68
2022/09/18 10:22:52;;;;;;;3.35;0.80;;;;;;;;;;4986110;28;20383;-68
2022/09/18 10:25:43;;;;;;;3.05;0.80;;;;;;;;;;4986659;28;20465;-68
2022/09/18 10:28:12;;;;;;;1.67;0.90;;;;;;;;;;4987014;28;20501;-69
2022/09/18 10:30:59;;;;;;;2.53;0.93;;;;;;;;;;4986342;28;20480;-68
2022/09/18 10:33:30;;;;;;;1.08;0.70;;;;;;;;;;4986059;28;20450;-69
2022/09/18 10:36:01;;;;;;;1.10;0.65;;;;;;;;;;4988837;28;20316;-68
2022/09/18 10:38:31;;;;;;;1.55;0.70;;;;;;;;;;4988941;28;20436;-68
2022/09/18 10:41:10;;;;;;;1.10;0.60;;;;;;;;;;4986185;28;20440;-69
2022/09/18 10:43:35;;;;;;;;;;;;;;;;;;5002804;28;20339;-69
2022/09/18 10:46:01;;;;;;;1.20;0.63;;;;;;;;;;4986126;28;20247;-68
2022/09/18 10:48:26;;;;;;;1.48;0.80;;;;;;;;;;4986516;28;20033;-68
2022/09/18 10:50:59;;;;;;;1.20;0.70;;;;;;;;;;4986141;28;20501;-68
2022/09/18 10:53:37;;;;;;;3.60;1.25;;;;;;;;;;5001848;28;20052;-68
2022/09/18 10:56:16;;;;;;;1.73;0.80;;;;;;;;;;4986401;28;20036;-69
2022/09/18 10:58:42;;;;;;;1.45;0.80;;;;;;;;;;4986395;28;20502;-68
2022/09/18 11:01:08;;;;;;;0.85;0.50;;;;;;;;;;4969933;28;20455;-69
2022/09/18 11:03:59;;;;;;;0.95;0.57;;;;;;;;;;4985895;28;20060;-68
2022/09/18 11:06:27;;;;;;;1.05;0.50;;;;;;;;;;4985875;28;20464;-69
2022/09/18 11:08:58;;;;;;;0.75;0.40;;;;;;;;;;4988353;28;20452;-69
2022/09/18 11:11:33;;;;;;;3.08;0.63;;;;;;;;;;4990020;28;20341;-68
2022/09/18 11:14:02;;;;;;;1.33;0.52;;;;;;;;;;4973088;28;20507;-68
2022/09/18 11:16:30;;;;;;;1.05;0.43;;;;;;;;;;4992477;28;20478;-68
2022/09/18 11:19:21;;;;;;;0.90;0.55;;;;;;;;;;4991408;28;20454;-69
2022/09/18 11:21:53;;;;;;;2.35;0.90;;;;;;;;;;4976402;28;20379;-69
2022/09/18 11:24:29;;;;;;;1.60;0.60;;;;;;;;;;4991134;28;20359;-69
2022/09/18 11:26:57;;;;;;;1.77;1.00;;;;;;;;;;4973613;28;20358;-69
2022/09/18 11:29:25;;;;;;;0.77;0.43;;;;;;;;;;4973068;28;20444;-69
2022/09/18 11:31:55;;;;;;;1.23;0.70;;;;;;;;;;4993287;28;20471;-69
2022/09/18 11:34:24;;;;;;;3.22;0.63;;;;;;;;;;4973042;28;20059;-69
2022/09/18 11:36:53;;;;;;;1.05;0.70;;;;;;;;;;4991487;28;20509;-69
2022/09/18 11:39:28;;;;;;;2.30;0.75;;;;;;;;;;4973059;28;20424;-69
2022/09/18 11:41:54;;;;;;;1.67;0.85;;;;;;;;;;4973143;28;20502;-68
2022/09/18 11:44:27;;;;;;;0.80;0.60;;;;;;;;;;4973388;28;20462;-69
2022/09/18 11:47:08;;;;;;;0.57;0.50;;;;;;;;;;4973525;28;20382;-68
2022/09/18 11:49:38;;;;;;;0.77;0.60;;;;;;;;;;4990754;28;20354;-69
2022/09/18 11:52:29;;;;;;;2.47;1.10;;;;;;;;;;4972696;28;20135;-68
2022/09/18 11:55:07;;;;;;;0.55;0.50;;;;;;;;;;4973334;28;20439;-68
2022/09/18 11:57:38;;;;;;;0.93;0.60;;;;;;;;;;4991056;28;20549;-69
2022/09/18 12:00:08;;;;;;;2.88;0.70;;;;;;;;;;4972648;28;20343;-68
2022/09/18 12:02:56;;;;;;;0.85;0.55;;;;;;;;;;4972909;28;20357;-69
2022/09/18 12:05:46;;;;;;;5.75;1.00;;;;;;;;;;4956787;28;20432;-69
2022/09/18 12:08:12;;;;;;;0.95;0.70;;;;;;;;;;4978111;28;20404;-68
2022/09/18 12:11:09;;;;;;;5.18;0.88;;;;;;;;;;4990566;28;20346;-68
2022/09/18 12:14:00;;;;;;;1.70;0.80;;;;;;;;;;4956074;28;20522;-68
2022/09/18 12:16:37;;;;;;;1.50;0.50;;;;;;;;;;4973258;28;20048;-69
2022/09/18 12:19:39;;;;;;;2.83;0.80;;;;;;;;;;4990281;28;20478;-68
2022/09/18 12:22:18;;;;;;;1.48;0.80;;;;;;;;;;4945671;28;20386;-68
2022/09/18 12:24:44;;;;;;;4.03;0.93;;;;;;;;;;4972079;28;20472;-68
2022/09/18 12:27:36;;;;;;;1.13;0.75;;;;;;;;;;4990340;28;20565;-69
2022/09/18 12:30:10;;;;;;;0.93;0.68;;;;;;;;;;4972094;28;20344;-68
2022/09/18 12:32:50;;;;;;;1.60;0.77;;;;;;;;;;4989793;28;20474;-69
2022/09/18 12:35:37;;;;;;;5.20;1.13;;;;;;;;;;4990028;28;20335;-68
2022/09/18 12:38:16;;;;;;;2.22;0.75;;;;;;;;;;4991251;28;20033;-69
2022/09/18 12:41:16;;;;;;;1.02;0.60;;;;;;;;;;4990158;28;20367;-68
2022/09/18 12:43:53;;;;;;;0.82;0.50;;;;;;;;;;4972366;28;20064;-69
2022/09/18 12:46:37;;;;;;;1.85;0.85;;;;;;;;;;4971863;28;20419;-68
2022/09/18 12:49:28;;;;;;;1.13;0.57;;;;;;;;;;4990963;28;20068;-68
2022/09/18 12:52:06;;;;;;;1.45;0.75;;;;;;;;;;4971231;28;20343;-69
2022/09/18 12:54:40;;;;;;;0.60;0.50;;;;;;;;;;4990023;28;20386;-69
2022/09/18 12:57:36;;;;;;;0.70;0.57;;;;;;;;;;4989689;28;20450;-68
2022/09/18 13:00:02;;;;;;;1.05;0.60;;;;;;;;;;4989443;28;20368;-68
2022/09/18 13:02:54;;;;;;;0.70;0.40;;;;;;;;;;4990105;28;20455;-69
2022/09/18 13:05:26;;;;;;;1.85;0.70;;;;;;;;;;4971497;28;20456;-68
2022/09/18 13:08:06;;;;;;;0.90;0.65;;;;;;;;;;4989320;28;20486;-68
2022/09/18 13:10:39;;;;;;;0.63;0.40;;;;;;;;;;4989318;28;20451;-68
2022/09/18 13:13:17;;;;;;;1.33;0.60;;;;;;;;;;4971055;28;20351;-68
2022/09/18 13:16:08;;;;;;;2.20;0.70;;;;;;;;;;4989899;28;20090;-68
2022/09/18 13:18:37;;;;;;;1.50;0.70;;;;;;;;;;4989404;28;20028;-68
2022/09/18 13:21:06;;;;;;;0.95;0.70;;;;;;;;;;4971114;28;20033;-68
2022/09/18 13:23:37;;;;;;;0.85;0.60;;;;;;;;;;4989094;28;20448;-68
2022/09/18 13:26:05;;;;;;;0.63;0.52;;;;;;;;;;4971693;28;20517;-68
2022/09/18 13:28:32;;;;;;;1.60;0.47;;;;;;;;;;4988967;28;20090;-69
2022/09/18 13:31:19;;;;;;;0.57;0.50;;;;;;;;;;4988823;28;20371;-68
2022/09/18 13:33:49;;;;;;;0.65;0.50;;;;;;;;;;4953503;28;20348;-68
2022/09/18 13:36:21;;;;;;;0.40;0.40;;;;;;;;;;4971218;28;20509;-69
2022/09/18 13:38:47;;;;;;;0.82;0.52;;;;;;;;;;4989282;28;20029;-69
2022/09/18 13:41:13;;;;;;;0.80;0.50;;;;;;;;;;4972092;28;20517;-68
2022/09/18 13:43:45;;;;;;;1.33;0.60;;;;;;;;;;4970908;28;20332;-68
2022/09/18 13:46:32;;;;;;;0.60;0.50;;;;;;;;;;4989011;28;20387;-68
2022/09/18 13:49:01;;;;;;;1.20;0.70;;;;;;;;;;4970536;28;20428;-69
2022/09/18 13:51:30;;;;;;;0.77;0.50;;;;;;;;;;4970455;28;20047;-68
2022/09/18 13:54:22;;;;;;;1.40;0.50;;;;;;;;;;4970874;28;20112;-68
2022/09/18 13:57:03;;;;;;;1.40;0.80;;;;;;;;;;4627138;28;10000963;-68
2022/09/18 13:59:54;;;;;;;1.30;0.60;;;;;;;;;;4971179;28;20352;-69
2022/09/18 14:02:29;;;;;;;0.57;0.50;;;;;;;;;;4974442;28;20469;-70
2022/09/18 14:05:00;;;;;;;1.92;0.85;;;;;;;;;;4970437;28;20344;-69
2022/09/18 14:07:25;;;;;;;1.83;1.00;;;;;;;;;;4989156;28;20408;-69
2022/09/18 14:10:24;;;;;;;1.40;0.57;;;;;;;;;;4988113;28;20104;-69
2022/09/18 14:13:16;;;;;;;2.00;0.77;;;;;;;;;;4932028;28;20397;-70
2022/09/18 14:16:02;;;;;;;1.30;0.80;;;;;;;;;;4988774;28;20355;-69
2022/09/18 14:18:28;;;;;;;3.13;1.15;;;;;;;;;;4988076;28;20033;-69
2022/09/18 14:20:58;;;;;;;0.90;0.52;;;;;;;;;;4988636;28;20438;-69
2022/09/18 14:23:32;;;;;;;0.93;0.80;;;;;;;;;;4987828;28;20536;-68
2022/09/18 14:25:58;;;;;;;0.73;0.55;;;;;;;;;;4987963;28;20047;-70
2022/09/18 14:28:24;;;;;;;1.13;0.73;;;;;;;;;;4969865;28;20424;-70
2022/09/18 14:31:11;;;;;;;1.10;0.80;;;;;;;;;;4970121;28;20029;-70
2022/09/18 14:33:37;;;;;;;1.85;0.68;;;;;;;;;;4987914;28;20044;-70
2022/09/18 14:36:04;;;;;;;0.80;0.60;;;;;;;;;;4969849;28;20147;-69
2022/09/18 14:38:34;;;;;;;1.45;0.55;;;;;;;;;;4969633;28;20329;-70
2022/09/18 14:41:07;;;;;;;0.75;0.55;;;;;;;;;;4970745;28;20406;-71
2022/09/18 14:43:39;;;;;;;0.98;0.70;;;;;;;;;;4970144;28;20407;-70
2022/09/18 14:46:05;;;;;;;2.10;1.00;;;;;;;;;;4969789;28;20478;-70
2022/09/18 14:48:36;;;;;;;0.77;0.47;;;;;;;;;;4989187;28;20458;-70
2022/09/18 14:51:14;;;;;;;0.57;0.57;;;;;;;;;;4953174;28;20531;-70
2022/09/18 14:53:44;;;;;;;1.33;0.60;;;;;;;;;;4987362;28;20395;-70
2022/09/18 14:56:15;;;;;;;2.22;0.70;;;;;;;;;;4987475;28;20152;-70
2022/09/18 14:58:43;;;;;;;0.77;0.45;;;;;;;;;;4969422;28;20540;-70
2022/09/18 15:01:21;;;;;;;2.33;0.67;;;;;;;;;;4987590;28;20320;-70
2022/09/18 15:03:48;;;;;;;0.80;0.60;;;;;;;;;;4987742;28;20716;-70
2022/09/18 15:06:39;;;;;;;2.92;1.15;;;;;;;;;;4970424;28;20489;-70
2022/09/18 15:09:06;;;;;;;4.80;1.58;;;;;;;;;;4987702;28;20348;-70